8°C Temp
5°C Dewpoint
82% Humidity
Temperature
3 KM/H
2 MPH
2 KTS
150°
South South
East

Wind Speed
Clear
Conditions
Pressure 1023.92 (hPa) - 30.24 (in)
Visibility 6.2 (mi) - 10.0 (km)

Current Conditions
SAEZ
Location 120km(km)
Metar :SAEZ 182300Z 15002KT CAVOK 08/05 Q1024 NOSIG RMK PP000
Wed 18th May 20:00 pm

Airport
  Metar Aviation API Data Provided by https://www.checkwx.com/ PHP scripts by weather34.com ©2022